メインページ
METAR-TAF:

METAR-TAF

空港 :

上海浦東国際空港

上海浦東, 中華人民共和国

緯度: 31-07N, 経度: 121-46E, 海抜: 4m

現時点の気象観測

当レポートは28分前の19:00(UTC)に作成
南/南東の風 4kt
気温 26°C
湿度 94%
気圧 1013 hPa
視程10km以上
1,500メートル以下は雲なし、積乱雲なし

METAR: ZSPD 181900Z 15002MPS CAVOK 26/25 Q1013 NOSIG

時間: 03:28 (19:28 UTC)

予報

当レポートは4時間17分前の15:11(UTC)に作成
予報は18日の 18時(UTC)から 19日の 18時(UTC)まで有効
東/南東の風 8kt
視程: 6000m
高度1600ftの千切れ雲あり

TAF: ZSPD 181511Z 1818/1918 12004MPS 6000 BKN016 TX31/1906Z TN25/1821Z

4,000以上の空港の気象観測と天気予報(METAR報とTAF報)

利用可能な観測所は地図上に黄色い丸と赤い丸で示す。

丸の上にカーソルを重ねると観測所名を参照できる。

次にクリックすると気象観測と天気予報を参照できる。

マップの切り替え:黒色「×」印の緑ボタンをクリックして拡大、「-」印の緑ボタンをクリックして縮小、緑色の三角印をクリックして隣りの地図に切り替え


METAR-TAF: